Time;durP1;ratioP1;P1;durP2;ratioP2;P2;SDS_P1;SDS_P2;PMS_P1;PMS_P2;Temp;Humidity;BMP_temperature;BMP_pressure;BME280_temperature;BME280_humidity;BME280_pressure;Samples;Min_cycle;Max_cycle;Signal;HPM_P1;HPM_P2
2023/06/05 00:00:21;;;;;;;3.38;1.75;;;;;;;17.17;35.94;100968.88;5051673;28;20210;-61
2023/06/05 00:02:50;;;;;;;2.97;1.55;;;;;;;17.18;36.20;100967.13;5059638;28;20215;-61
2023/06/05 00:05:18;;;;;;;1.88;1.23;;;;;;;17.20;36.07;100966.22;5051178;28;20213;-62
2023/06/05 00:07:46;;;;;;;2.65;1.00;;;;;;;17.21;35.66;100970.50;5052035;28;20232;-62
2023/06/05 00:10:14;;;;;;;3.15;1.50;;;;;;;17.17;35.54;100966.28;5051100;28;20567;-62
2023/06/05 00:12:44;;;;;;;1.73;1.35;;;;;;;17.15;35.52;100970.66;5050440;28;20284;-63
2023/06/05 00:15:12;;;;;;;3.47;1.40;;;;;;;17.13;35.85;100962.03;5047147;28;20588;-62
2023/06/05 00:17:40;;;;;;;4.45;1.42;;;;;;;17.12;35.77;100962.91;5050931;28;20224;-63
2023/06/05 00:20:09;;;;;;;3.78;1.27;;;;;;;17.08;35.60;100962.13;5049776;28;20206;-62
2023/06/05 00:22:38;;;;;;;1.58;1.30;;;;;;;17.08;36.06;100963.88;5060689;28;20218;-60
2023/06/05 00:25:08;;;;;;;2.00;1.33;;;;;;;17.10;36.19;100965.56;5051520;28;20198;-61
2023/06/05 00:27:36;;;;;;;4.10;1.42;;;;;;;17.10;36.18;100960.34;5051169;28;21968;-62
2023/06/05 00:30:07;;;;;;;1.38;0.90;;;;;;;17.10;35.90;100969.91;5048326;28;20265;-63
2023/06/05 00:32:37;;;;;;;1.40;1.30;;;;;;;17.12;36.14;100968.13;5049099;28;20281;-63
2023/06/05 00:35:09;;;;;;;1.95;1.48;;;;;;;17.11;36.39;100967.25;5051824;28;20198;-62
2023/06/05 00:37:37;;;;;;;1.33;1.08;;;;;;;17.10;36.16;100967.31;5046501;28;20212;-63
2023/06/05 00:40:07;;;;;;;3.15;1.10;;;;;;;17.06;36.46;100969.13;5050900;28;20198;-61
2023/06/05 00:42:35;;;;;;;3.85;1.23;;;;;;;17.03;36.23;100964.00;5050722;28;20225;-62
2023/06/05 00:45:05;;;;;;;0.93;0.90;;;;;;;17.02;36.55;100961.44;5055258;28;20204;-62
2023/06/05 00:47:33;;;;;;;1.58;1.20;;;;;;;17.00;36.55;100958.00;5052362;28;20289;-62
2023/06/05 00:50:02;;;;;;;1.60;1.13;;;;;;;16.96;36.79;100956.38;5044178;28;20259;-62
2023/06/05 00:52:30;;;;;;;1.20;1.10;;;;;;;16.96;36.87;100965.03;5055031;28;20205;-61
2023/06/05 00:54:59;;;;;;;3.63;1.20;;;;;;;16.96;37.06;100966.78;5048512;28;20229;-61
2023/06/05 00:57:28;;;;;;;2.92;1.30;;;;;;;16.92;37.07;100965.13;5048632;28;20210;-61
2023/06/05 00:59:56;;;;;;;1.63;1.20;;;;;;;16.91;36.91;100961.69;5053544;28;20205;-62
2023/06/05 01:02:27;;;;;;;2.47;1.27;;;;;;;16.87;36.54;100962.66;5053147;28;20561;-62
2023/06/05 01:04:56;;;;;;;4.30;1.60;;;;;;;16.85;36.30;100960.06;5050544;28;20229;-62
2023/06/05 01:07:24;;;;;;;3.20;1.45;;;;;;;16.79;36.29;100962.81;5054710;28;20659;-62
2023/06/05 01:09:52;;;;;;;2.40;1.48;;;;;;;16.73;37.00;100960.31;5052598;28;20224;-63
2023/06/05 01:12:28;;;;;;;3.20;1.40;;;;;;;16.69;36.71;100958.69;5048464;28;20209;-63
2023/06/05 01:14:58;;;;;;;2.78;1.10;;;;;;;16.68;37.05;100962.19;5050876;28;20209;-62
2023/06/05 01:17:29;;;;;;;2.35;1.20;;;;;;;16.65;37.04;100968.28;5050833;28;20545;-62
2023/06/05 01:20:00;;;;;;;3.45;1.15;;;;;;;16.63;37.00;100959.66;5048319;28;20201;-63
2023/06/05 01:22:28;;;;;;;1.88;1.25;;;;;;;16.62;36.58;100954.50;5050546;28;20652;-60
2023/06/05 01:24:59;;;;;;;2.22;1.20;;;;;;;16.62;37.02;100957.09;5051008;28;20202;-62
2023/06/05 01:27:32;;;;;;;1.88;1.20;;;;;;;16.64;36.72;100957.91;5050425;28;20641;-61
2023/06/05 01:30:04;;;;;;;2.60;1.30;;;;;;;16.69;36.85;100966.47;5048153;28;20230;-63
2023/06/05 01:32:39;;;;;;;3.00;1.50;;;;;;;16.68;36.94;100970.00;5048892;28;20206;-62
2023/06/05 01:35:08;;;;;;;3.00;1.40;;;;;;;16.63;36.83;100966.59;5055835;28;20227;-61
2023/06/05 01:37:41;;;;;;;4.93;1.50;;;;;;;16.59;37.65;100967.56;5048132;28;20639;-64
2023/06/05 01:40:15;;;;;;;4.90;1.30;;;;;;;16.55;37.55;100965.91;5050562;28;20208;-62
2023/06/05 01:42:44;;;;;;;2.47;1.45;;;;;;;16.53;37.98;100968.56;5050395;28;20244;-62
2023/06/05 01:45:15;;;;;;;2.28;1.40;;;;;;;16.55;37.61;100965.91;5059751;28;20690;-62
2023/06/05 01:47:45;;;;;;;2.67;1.05;;;;;;;16.53;37.03;100967.69;5049573;28;21039;-63
2023/06/05 01:50:13;;;;;;;2.55;1.17;;;;;;;16.51;36.95;100965.13;5052467;28;20193;-62
2023/06/05 01:52:44;;;;;;;1.73;1.00;;;;;;;16.52;36.56;100963.38;5052694;28;20202;-62
2023/06/05 01:55:18;;;;;;;4.03;1.30;;;;;;;16.55;36.79;100963.31;5050275;28;20550;-62
2023/06/05 01:57:46;;;;;;;1.45;1.10;;;;;;;16.56;36.82;100959.81;5050171;28;20210;-62
2023/06/05 02:00:15;;;;;;;2.55;1.48;;;;;;;16.57;36.68;100964.13;5049321;28;20210;-62
2023/06/05 02:02:45;;;;;;;2.33;1.17;;;;;;;16.53;37.00;100963.38;5050225;28;20210;-61
2023/06/05 02:05:14;;;;;;;1.75;0.90;;;;;;;16.52;37.12;100960.78;5050659;28;20627;-61
2023/06/05 02:07:47;;;;;;;1.73;1.40;;;;;;;16.52;37.28;100963.38;5046020;28;20678;-62
2023/06/05 02:10:18;;;;;;;2.30;1.17;;;;;;;16.52;37.78;100960.78;5040735;28;20198;-63
2023/06/05 02:12:47;;;;;;;1.42;1.17;;;;;;;16.53;37.63;100955.56;5044193;28;20214;-62
2023/06/05 02:15:15;;;;;;;1.67;1.08;;;;;;;16.53;37.72;100954.69;5052380;28;20570;-63
2023/06/05 02:17:50;;;;;;;1.20;1.10;;;;;;;16.50;37.54;100958.22;5060108;28;20237;-62
2023/06/05 02:20:19;;;;;;;1.90;1.30;;;;;;;16.50;37.43;100957.38;5053763;28;20205;-61
2023/06/05 02:22:49;;;;;;;4.90;1.30;;;;;;;16.48;37.92;100960.00;5054433;28;20245;-60
2023/06/05 02:25:20;;;;;;;2.40;1.35;;;;;;;16.42;37.64;100958.38;5051989;28;20678;-62
2023/06/05 02:27:48;;;;;;;1.85;1.20;;;;;;;16.38;37.79;100958.47;5058482;28;20209;-61
2023/06/05 02:30:17;;;;;;;2.00;1.25;;;;;;;16.35;38.24;100950.75;5055959;28;20225;-62
2023/06/05 02:32:45;;;;;;;2.78;1.10;;;;;;;16.27;38.25;100953.47;5053715;28;20601;-62
2023/06/05 02:35:14;;;;;;;1.25;1.10;;;;;;;16.28;38.13;100947.41;5056258;28;20201;-62
2023/06/05 02:37:44;;;;;;;2.88;1.05;;;;;;;16.28;38.26;100957.81;5054634;28;20581;-62
2023/06/05 02:40:14;;;;;;;4.43;1.20;;;;;;;16.29;37.60;100956.06;5052029;28;20202;-61
2023/06/05 02:42:43;;;;;;;2.13;1.23;;;;;;;16.30;37.53;100956.03;5053142;28;20238;-62
2023/06/05 02:45:11;;;;;;;1.60;1.15;;;;;;;16.24;37.06;100948.38;5052120;28;20224;-61
2023/06/05 02:47:39;;;;;;;2.83;1.13;;;;;;;16.28;36.84;100956.97;5051316;28;20198;-61
2023/06/05 02:50:08;;;;;;;2.08;0.90;;;;;;;16.28;37.04;100952.63;5054060;28;20288;-62
2023/06/05 02:52:38;;;;;;;1.17;1.02;;;;;;;16.29;37.32;100961.25;5047624;28;20547;-62
2023/06/05 02:55:07;;;;;;;2.28;1.40;;;;;;;16.30;36.82;100950.81;5052736;28;20274;-60
2023/06/05 02:57:41;;;;;;;3.42;1.33;;;;;;;16.33;36.61;100955.97;5046252;28;20206;-61
2023/06/05 03:00:15;;;;;;;2.42;1.10;;;;;;;16.36;36.16;100953.31;5050686;28;20207;-62
2023/06/05 03:02:48;;;;;;;2.78;1.10;;;;;;;16.39;36.48;100957.59;5047176;28;20202;-60
2023/06/05 03:05:24;;;;;;;1.77;1.55;;;;;;;16.40;36.46;100956.69;5053341;28;20218;-62
2023/06/05 03:07:56;;;;;;;1.60;1.00;;;;;;;16.39;36.75;100955.84;5052944;28;20259;-62
2023/06/05 03:10:24;;;;;;;5.38;1.20;;;;;;;16.35;36.66;100959.41;5052375;28;20851;-61
2023/06/05 03:12:52;;;;;;;2.67;1.35;;;;;;;16.34;36.76;100959.41;5056674;28;20242;-62
2023/06/05 03:15:21;;;;;;;2.67;1.27;;;;;;;16.31;36.65;100957.75;5058073;28;20202;-61
2023/06/05 03:17:50;;;;;;;1.40;1.20;;;;;;;16.32;36.79;100964.66;5052250;28;20313;-60
2023/06/05 03:20:19;;;;;;;2.92;1.25;;;;;;;16.34;36.81;100962.88;5048084;28;20198;-61
2023/06/05 03:22:47;;;;;;;2.35;1.45;;;;;;;16.35;37.16;100964.59;5057573;28;20263;-61
2023/06/05 03:25:15;;;;;;;3.42;1.48;;;;;;;16.32;37.64;100962.06;5051812;28;20218;-62
2023/06/05 03:27:43;;;;;;;1.45;1.17;;;;;;;16.37;38.10;100961.97;5060822;28;20251;-59
2023/06/05 03:30:16;;;;;;;2.85;1.30;;;;;;;16.37;38.84;100968.00;5055703;28;20288;-62
2023/06/05 03:32:46;;;;;;;2.72;1.60;;;;;;;16.37;38.93;100960.22;5053890;28;20281;-60
2023/06/05 03:35:15;;;;;;;3.17;1.73;;;;;;;16.37;39.08;100961.97;5050604;28;20202;-61
2023/06/05 03:37:43;;;;;;;5.82;1.35;;;;;;;16.39;39.35;100966.25;5051303;28;20206;-61
2023/06/05 03:40:13;;;;;;;2.13;1.30;;;;;;;16.39;39.82;100970.59;5049032;28;20203;-62
2023/06/05 03:42:41;;;;;;;2.50;1.30;;;;;;;16.37;39.62;100973.22;5051680;28;20213;-61
2023/06/05 03:45:09;;;;;;;5.72;1.30;;;;;;;16.37;39.88;100961.97;5055668;28;20216;-61
2023/06/05 03:47:37;;;;;;;2.25;1.50;;;;;;;16.37;39.74;100965.41;5053198;28;20200;-62
2023/06/05 03:50:08;;;;;;;1.85;1.30;;;;;;;16.37;39.65;100962.81;5052481;28;20614;-60
2023/06/05 03:52:39;;;;;;;2.40;1.20;;;;;;;16.38;40.07;100964.50;5063594;28;20577;-62
2023/06/05 03:55:09;;;;;;;6.45;1.92;;;;;;;16.41;39.73;100968.81;5050430;28;20202;-60
2023/06/05 03:57:37;;;;;;;2.50;1.70;;;;;;;16.45;40.39;100972.19;5044475;28;20210;-63
2023/06/05 04:00:09;;;;;;;5.20;1.60;;;;;;;16.47;40.72;100973.03;5052163;28;20213;-61
2023/06/05 04:02:37;;;;;;;4.28;1.38;;;;;;;16.50;39.79;100970.38;5055518;28;20671;-62
2023/06/05 04:05:11;;;;;;;3.15;1.30;;;;;;;16.52;39.85;100979.00;5050076;28;20569;-62
2023/06/05 04:07:39;;;;;;;3.05;1.65;;;;;;;16.55;39.61;100973.72;5051129;28;20224;-62
2023/06/05 04:10:08;;;;;;;1.70;1.40;;;;;;;16.56;39.01;100965.88;5047904;28;20210;-61
2023/06/05 04:12:36;;;;;;;2.58;1.25;;;;;;;16.62;39.10;100973.56;5050623;28;20210;-61
2023/06/05 04:15:05;;;;;;;3.08;1.08;;;;;;;16.71;39.17;100972.50;5054304;28;20204;-62
2023/06/05 04:17:33;;;;;;;5.57;1.42;;;;;;;16.77;39.28;100972.41;5051893;28;20205;-62
2023/06/05 04:20:02;;;;;;;4.07;1.48;;;;;;;16.84;39.92;100979.19;5051278;28;20656;-61
2023/06/05 04:22:32;;;;;;;2.78;1.10;;;;;;;16.93;39.56;100972.91;5053750;28;20224;-61
2023/06/05 04:25:00;;;;;;;2.70;1.13;;;;;;;17.00;39.47;100984.03;5055076;28;20225;-61
2023/06/05 04:27:28;;;;;;;3.47;1.83;;;;;;;17.05;38.64;100967.44;5047914;28;20658;-62
2023/06/05 04:29:56;;;;;;;4.45;1.73;;;;;;;17.09;38.19;100976.03;5052064;28;20237;-62
2023/06/05 04:32:25;;;;;;;4.07;1.40;;;;;;;17.13;37.25;100980.28;5050672;28;20256;-61
2023/06/05 04:34:53;;;;;;;2.58;1.30;;;;;;;17.19;37.15;100982.72;5051483;28;20279;-61
2023/06/05 04:37:21;;;;;;;1.92;1.25;;;;;;;17.28;37.27;100984.25;5052591;28;20212;-62
2023/06/05 04:39:51;;;;;;;5.75;1.60;;;;;;;17.38;37.01;100986.59;5050773;28;20210;-61
2023/06/05 04:42:18;;;;;;;2.70;1.25;;;;;;;17.46;36.73;100982.94;5051991;28;20201;-62
2023/06/05 04:44:56;;;;;;;3.55;1.58;;;;;;;17.56;36.64;100995.72;5049875;28;20222;-62
2023/06/05 04:47:24;;;;;;;6.55;1.45;;;;;;;17.63;36.26;100993.78;5050207;28;20202;-62
2023/06/05 04:49:53;;;;;;;3.40;1.55;;;;;;;17.68;35.74;100991.09;5056294;28;20735;-61
2023/06/05 04:52:23;;;;;;;4.55;1.13;;;;;;;17.73;35.86;100995.25;5050852;28;20206;-62
2023/06/05 04:54:52;;;;;;;2.90;1.52;;;;;;;17.78;35.91;100990.81;5057110;28;20202;-62
2023/06/05 04:57:20;;;;;;;6.20;1.85;;;;;;;17.85;35.75;100981.94;5050955;28;20210;-62
2023/06/05 04:59:48;;;;;;;1.83;1.52;;;;;;;17.92;35.81;100993.06;5053732;28;20293;-62
2023/06/05 05:02:16;;;;;;;4.03;1.27;;;;;;;18.00;35.56;100992.84;5050551;28;20226;-61
2023/06/05 05:04:44;;;;;;;4.38;1.70;;;;;;;18.09;35.50;100984.78;5052118;28;20232;-63
2023/06/05 05:07:15;;;;;;;3.90;1.52;;;;;;;18.18;35.41;100981.06;5048566;28;20518;-62
2023/06/05 05:09:43;;;;;;;3.33;1.27;;;;;;;18.37;35.42;100981.38;5051218;28;20214;-62
2023/06/05 05:12:12;;;;;;;3.92;1.48;;;;;;;18.60;34.85;100981.59;5043755;28;20229;-61
2023/06/05 05:14:41;;;;;;;2.22;1.10;;;;;;;18.82;34.29;100987.91;5048565;28;20584;-61
2023/06/05 05:17:09;;;;;;;5.05;1.50;;;;;;;19.04;33.66;100988.09;5043386;28;20198;-62
2023/06/05 05:19:39;;;;;;;2.75;1.40;;;;;;;19.26;33.60;100983.03;5048472;28;20201;-61
2023/06/05 05:22:07;;;;;;;6.72;1.10;;;;;;;19.54;33.31;100988.19;5049385;28;20249;-62
2023/06/05 05:24:35;;;;;;;4.05;1.42;;;;;;;19.83;32.21;100985.53;5049747;28;20752;-61
2023/06/05 05:27:03;;;;;;;4.30;1.50;;;;;;;20.08;31.98;100991.59;5049033;28;20289;-62
2023/06/05 05:29:33;;;;;;;4.13;1.60;;;;;;;20.34;31.81;100977.56;5045726;28;20237;-62
2023/06/05 05:32:01;;;;;;;4.60;1.50;;;;;;;20.59;31.33;100990.63;5043574;28;20237;-60
2023/06/05 05:34:29;;;;;;;9.57;1.85;;;;;;;20.85;31.37;100992.25;5049706;28;20197;-61
2023/06/05 05:36:57;;;;;;;4.07;1.67;;;;;;;21.11;30.93;100993.81;5048229;28;20225;-61
2023/06/05 05:39:25;;;;;;;3.05;1.60;;;;;;;21.32;30.26;100984.25;5051163;28;20205;-62
2023/06/05 05:41:53;;;;;;;4.88;1.50;;;;;;;21.46;30.02;100986.31;5047230;28;20715;-62
2023/06/05 05:44:21;;;;;;;4.70;1.60;;;;;;;21.58;30.20;100983.19;5048162;28;20204;-62
2023/06/05 05:46:50;;;;;;;5.25;1.65;;;;;;;21.77;29.46;100985.03;5054508;28;20218;-62
2023/06/05 05:49:18;;;;;;;4.57;1.33;;;;;;;21.81;28.94;100987.44;5053179;28;20300;-60
2023/06/05 05:51:46;;;;;;;3.38;1.27;;;;;;;21.77;29.17;100990.28;5054775;28;20580;-60
2023/06/05 05:54:14;;;;;;;1.60;1.08;;;;;;;21.80;29.07;100987.50;5053506;28;20220;-61
2023/06/05 05:56:43;;;;;;;6.18;1.60;;;;;;;21.81;29.02;100986.59;5054354;28;20202;-61
2023/06/05 05:59:11;;;;;;;2.60;1.40;;;;;;;21.98;29.28;100989.31;5050064;28;20285;-61
2023/06/05 06:01:39;;;;;;;3.65;1.58;;;;;;;22.14;29.36;100987.75;5044518;28;20209;-62
2023/06/05 06:04:09;;;;;;;2.97;1.52;;;;;;;22.28;29.42;100989.78;5052470;28;20205;-63
2023/06/05 06:06:38;;;;;;;6.43;1.80;;;;;;;22.31;29.02;100988.78;5053933;28;20218;-61
2023/06/05 06:09:08;;;;;;;4.43;1.52;;;;;;;22.34;29.16;100992.09;5049663;28;20667;-62
2023/06/05 06:11:37;;;;;;;1.83;1.15;;;;;;;22.32;28.62;100990.50;5053552;28;20296;-62
2023/06/05 06:14:05;;;;;;;3.30;1.60;;;;;;;22.30;28.50;100989.69;5048465;28;20202;-59
2023/06/05 06:16:33;;;;;;;2.15;1.25;;;;;;;22.27;28.74;100988.06;5054251;28;20201;-61
2023/06/05 06:19:01;;;;;;;3.83;1.42;;;;;;;22.30;28.33;100992.31;5056267;28;20267;-62
2023/06/05 06:21:30;;;;;;;2.08;1.17;;;;;;;22.34;28.76;100994.72;5055009;28;20627;-61
2023/06/05 06:23:58;;;;;;;1.83;1.25;;;;;;;22.43;28.82;100988.22;5043710;28;20567;-61
2023/06/05 06:26:27;;;;;;;2.55;1.45;;;;;;;22.45;28.43;100988.16;5038949;28;20237;-61
2023/06/05 06:28:57;;;;;;;2.13;1.35;;;;;;;22.42;28.11;100997.00;5048836;28;20649;-62
2023/06/05 06:31:25;;;;;;;3.42;1.40;;;;;;;22.37;28.17;100991.97;5053371;28;20206;-61
2023/06/05 06:33:53;;;;;;;3.08;1.40;;;;;;;22.29;28.41;100995.88;5049257;28;20238;-60
2023/06/05 06:36:22;;;;;;;4.35;1.25;;;;;;;22.18;28.56;100993.72;5040640;28;20622;-61
2023/06/05 06:38:51;;;;;;;2.75;1.50;;;;;;;22.13;28.65;100990.44;5055638;28;20210;-60
2023/06/05 06:41:21;;;;;;;2.42;1.52;;;;;;;22.05;28.64;100988.13;5059974;28;20205;-61
2023/06/05 06:43:49;;;;;;;6.13;1.85;;;;;;;22.04;28.50;100990.84;5055802;28;20292;-62
2023/06/05 06:46:17;;;;;;;2.17;1.48;;;;;;;22.04;28.60;101001.34;5054805;28;20596;-61
2023/06/05 06:48:45;;;;;;;4.22;1.98;;;;;;;22.06;28.59;100991.63;5052021;28;20213;-60
2023/06/05 06:51:13;;;;;;;4.22;2.00;;;;;;;22.09;28.58;101000.22;5051503;28;20254;-62
2023/06/05 06:53:41;;;;;;;3.53;1.98;;;;;;;22.08;28.33;100998.50;5053028;28;20240;-61
2023/06/05 06:56:11;;;;;;;4.63;1.48;;;;;;;22.06;27.72;100992.47;5052261;28;20286;-63
2023/06/05 06:58:39;;;;;;;2.75;1.10;;;;;;;22.01;27.84;100991.81;5054401;28;20298;-61
2023/06/05 07:01:07;;;;;;;1.48;1.00;;;;;;;21.98;27.48;100991.09;5059390;28;20609;-62
2023/06/05 07:03:35;;;;;;;4.55;1.75;;;;;;;21.93;27.52;100989.53;5059117;28;20206;-61
2023/06/05 07:06:04;;;;;;;7.90;3.25;;;;;;;21.87;27.31;100983.69;5045808;28;20261;-61
2023/06/05 07:08:32;;;;;;;2.85;1.38;;;;;;;21.83;27.59;100993.47;5049192;28;20968;-62
2023/06/05 07:11:00;;;;;;;4.25;1.98;;;;;;;21.85;27.74;100990.78;5052884;28;20201;-60
2023/06/05 07:13:29;;;;;;;2.58;1.33;;;;;;;21.88;28.16;100993.28;5051725;28;20221;-62
2023/06/05 07:15:57;;;;;;;2.13;1.13;;;;;;;21.89;27.45;100993.19;5056184;28;20678;-61
2023/06/05 07:18:26;;;;;;;2.08;0.90;;;;;;;21.94;27.36;100995.63;5053781;28;20220;-65
2023/06/05 07:20:54;;;;;;;3.40;1.20;;;;;;;21.97;27.38;101002.53;5052383;28;20210;-61
2023/06/05 07:23:23;;;;;;;3.65;1.10;;;;;;;22.02;27.47;101005.78;5052294;28;20247;-60
2023/06/05 07:25:52;;;;;;;1.23;0.88;;;;;;;22.03;26.44;100999.63;5051921;28;20256;-61
2023/06/05 07:28:20;;;;;;;2.30;1.02;;;;;;;21.97;26.12;101000.75;5048134;28;20723;-61
2023/06/05 07:30:50;;;;;;;1.88;1.10;;;;;;;21.95;26.97;100998.19;5051414;28;20208;-60
2023/06/05 07:33:18;;;;;;;1.88;1.10;;;;;;;21.99;26.95;101000.69;5048325;28;20225;-62
2023/06/05 07:35:57;;;;;;;1.60;0.70;;;;;;;22.01;25.92;101002.31;5041748;28;20309;-62
2023/06/05 07:38:26;;;;;;;1.60;1.08;;;;;;;21.98;25.66;101001.59;5052002;28;20202;-60
2023/06/05 07:40:56;;;;;;;1.10;1.00;;;;;;;21.94;26.47;100991.25;5051651;28;20205;-62
2023/06/05 07:43:24;;;;;;;0.88;0.70;;;;;;;21.91;26.69;100991.38;5048358;28;20263;-61
2023/06/05 07:45:54;;;;;;;2.53;1.00;;;;;;;21.90;27.01;100999.31;5051003;28;20210;-62
2023/06/05 07:48:22;;;;;;;4.55;1.15;;;;;;;21.91;27.13;100995.78;5048078;28;20212;-62
2023/06/05 07:50:49;;;;;;;2.42;0.88;;;;;;;21.94;26.72;100993.00;5051266;28;20289;-61
2023/06/05 07:53:18;;;;;;;1.60;0.90;;;;;;;21.98;26.17;100999.81;5052669;28;20209;-61
2023/06/05 07:55:46;;;;;;;2.10;1.00;;;;;;;21.99;25.72;100992.81;5050499;28;20576;-63
2023/06/05 07:58:15;;;;;;;1.13;0.93;;;;;;;22.04;25.82;100996.09;5050533;28;20198;-62
2023/06/05 08:00:47;;;;;;;3.60;0.88;;;;;;;22.07;26.05;100998.56;5051194;28;20289;-62
2023/06/05 08:03:19;;;;;;;2.08;1.00;;;;;;;22.08;25.65;100993.25;5052423;28;20209;-61
2023/06/05 08:05:49;;;;;;;2.03;0.80;;;;;;;22.08;25.41;100992.41;5049447;28;20532;-61
2023/06/05 08:08:18;;;;;;;1.17;0.73;;;;;;;22.09;25.89;100989.72;5050629;28;20249;-61
2023/06/05 08:10:47;;;;;;;3.70;1.15;;;;;;;22.13;26.01;100993.91;5051745;28;20297;-62
2023/06/05 08:13:16;;;;;;;1.45;0.90;;;;;;;22.18;25.63;100999.84;5051641;28;20574;-62
2023/06/05 08:15:44;;;;;;;2.97;1.30;;;;;;;22.21;25.60;100990.13;5051347;28;20714;-61
2023/06/05 08:18:13;;;;;;;1.38;0.98;;;;;;;22.18;25.83;100989.34;5051232;28;20635;-61
2023/06/05 08:20:42;;;;;;;1.60;0.90;;;;;;;22.29;24.59;100995.88;5051885;28;20234;-61
2023/06/05 08:23:13;;;;;;;4.30;1.10;;;;;;;22.26;24.40;101006.50;5045470;28;20659;-61
2023/06/05 08:25:42;;;;;;;2.75;0.98;;;;;;;22.15;24.31;100993.88;5050278;28;20209;-61
2023/06/05 08:28:10;;;;;;;2.90;1.00;;;;;;;22.10;24.64;100990.56;5050069;28;20665;-61
2023/06/05 08:30:38;;;;;;;2.30;1.08;;;;;;;22.07;24.86;100993.31;5051346;28;20206;-61
2023/06/05 08:33:06;;;;;;;1.95;1.38;;;;;;;22.08;25.59;100993.25;5051009;28;20599;-61
2023/06/05 08:35:34;;;;;;;1.33;0.98;;;;;;;22.15;25.68;100991.25;5051579;28;20198;-61
2023/06/05 08:38:04;;;;;;;2.67;1.45;;;;;;;22.20;24.92;100991.88;5037809;28;20202;-60
2023/06/05 08:40:36;;;;;;;2.20;0.95;;;;;;;22.20;23.72;100991.88;5051420;28;20204;-63
2023/06/05 08:43:04;;;;;;;2.90;1.48;;;;;;;22.18;23.88;100993.72;5051670;28;20605;-62
2023/06/05 08:45:32;;;;;;;1.65;0.90;;;;;;;22.21;24.18;100992.75;5051451;28;20206;-62
2023/06/05 08:48:01;;;;;;;2.05;1.48;;;;;;;22.28;24.35;100991.56;5051196;28;20226;-63
2023/06/05 08:50:30;;;;;;;1.98;1.50;;;;;;;22.34;24.68;100996.50;5051743;28;20229;-62
2023/06/05 08:53:00;;;;;;;3.38;1.10;;;;;;;22.37;24.32;100993.75;5050371;28;20198;-62
2023/06/05 08:55:31;;;;;;;1.95;1.27;;;;;;;22.38;24.19;100998.06;5051213;28;20297;-64
2023/06/05 08:58:03;;;;;;;4.53;1.42;;;;;;;22.36;24.76;100997.31;5051229;28;20197;-63
2023/06/05 09:00:32;;;;;;;1.85;1.10;;;;;;;22.34;24.84;100989.47;5050301;28;20206;-61
2023/06/05 09:03:00;;;;;;;3.55;0.75;;;;;;;22.35;24.84;100985.06;5051243;28;20715;-61
2023/06/05 09:05:28;;;;;;;2.15;0.82;;;;;;;22.41;25.10;100987.44;5051500;28;20210;-63
2023/06/05 09:07:58;;;;;;;3.35;1.13;;;;;;;22.42;24.66;100970.75;5051280;28;20213;-62
2023/06/05 09:10:27;;;;;;;4.90;1.30;;;;;;;22.47;25.32;100976.66;5051193;28;20237;-60
2023/06/05 09:12:58;;;;;;;3.20;1.20;;;;;;;22.52;25.33;100969.41;5051084;28;20314;-62
2023/06/05 09:15:28;;;;;;;2.90;0.90;;;;;;;22.53;25.40;100971.09;5050885;28;20204;-63
2023/06/05 09:18:08;;;;;;;2.40;0.93;;;;;;;22.56;25.27;100968.34;5051262;28;20206;-63
2023/06/05 09:20:37;;;;;;;4.60;1.10;;;;;;;22.61;25.33;100971.63;5050856;28;20256;-63
2023/06/05 09:23:24;;;;;;;1.98;1.10;;;;;;;22.69;25.24;100978.28;5051114;28;20210;-61
2023/06/05 09:25:54;;;;;;;3.22;1.00;;;;;;;22.75;25.43;100970.94;5041467;28;20224;-64
2023/06/05 09:28:24;;;;;;;2.78;1.27;;;;;;;22.85;25.30;100964.34;5053738;28;20324;-62
2023/06/05 09:30:57;;;;;;;1.85;1.10;;;;;;;22.89;24.53;100970.28;5055093;28;20210;-62
2023/06/05 09:33:27;;;;;;;1.52;1.00;;;;;;;22.83;24.16;100960.09;5054943;28;20210;-62
2023/06/05 09:36:06;;;;;;;4.63;1.30;;;;;;;22.90;24.48;100966.72;5055057;28;20227;-62
2023/06/05 09:38:35;;;;;;;1.45;1.10;;;;;;;22.93;24.97;100961.38;5054999;28;20544;-61
2023/06/05 09:41:07;;;;;;;4.72;1.00;;;;;;;23.00;25.62;100964.56;5054581;28;20214;-63
2023/06/05 09:43:37;;;;;;;4.25;1.60;;;;;;;23.11;25.63;100957.00;5054725;28;20336;-61
2023/06/05 09:46:09;;;;;;;7.57;1.63;;;;;;;23.26;25.54;100958.00;5054485;28;20241;-63
2023/06/05 09:48:39;;;;;;;1.60;1.30;;;;;;;23.35;24.70;100957.56;5054860;28;20642;-61
2023/06/05 09:51:12;;;;;;;3.03;1.52;;;;;;;23.36;24.13;100948.75;5054758;28;20212;-61
2023/06/05 09:53:44;;;;;;;1.83;1.30;;;;;;;23.39;23.73;100953.84;5054361;28;20613;-62
2023/06/05 09:56:14;;;;;;;1.90;1.17;;;;;;;23.45;23.80;100950.91;5054481;28;20251;-62
2023/06/05 09:58:47;;;;;;;1.08;0.98;;;;;;;23.50;23.75;100945.41;5052964;28;20194;-60
2023/06/05 10:01:18;;;;;;;1.42;1.30;;;;;;;23.60;23.83;100942.25;5053158;28;20301;-63
2023/06/05 10:03:51;;;;;;;1.13;0.90;;;;;;;23.77;23.83;100935.28;5053900;28;20217;-63
2023/06/05 10:06:23;;;;;;;2.20;1.20;;;;;;;24.03;23.50;100949.69;5054232;28;20212;-62
2023/06/05 10:08:53;;;;;;;1.25;1.15;;;;;;;24.24;23.41;100943.28;5054470;28;20214;-64
2023/06/05 10:11:22;;;;;;;2.90;0.85;;;;;;;24.45;22.36;100940.41;5054418;28;20241;-61
2023/06/05 10:13:53;;;;;;;2.63;1.15;;;;;;;24.78;22.17;100932.41;5052753;28;20724;-70
2023/06/05 10:16:22;;;;;;;3.45;0.95;;;;;;;25.47;21.33;100931.91;5054398;28;20214;-63
2023/06/05 10:18:55;;;;;;;1.58;1.25;;;;;;;26.45;20.46;100920.63;5054185;28;20248;-63
2023/06/05 10:21:25;;;;;;;2.20;1.10;;;;;;;27.63;19.54;100909.31;5054305;28;20562;-63
2023/06/05 10:23:58;;;;;;;2.40;1.20;;;;;;;28.72;17.98;100909.53;5053691;28;20206;-63
2023/06/05 10:26:48;;;;;;;3.38;1.10;;;;;;;29.72;17.05;100917.00;5052011;28;20596;-63
2023/06/05 10:29:34;;;;;;;1.52;0.93;;;;;;;30.72;16.24;100912.50;5041465;28;20599;-62
2023/06/05 10:32:06;;;;;;;1.02;0.90;;;;;;;31.22;14.92;100911.94;5053768;28;20205;-61
2023/06/05 10:34:47;;;;;;;3.75;1.00;;;;;;;31.46;15.44;100909.88;5053991;28;20217;-61
2023/06/05 10:37:35;;;;;;;0.90;0.80;;;;;;;32.11;14.89;100907.81;5053336;28;20726;-61
2023/06/05 10:40:05;;;;;;;1.38;0.90;;;;;;;32.85;14.23;100912.72;5053869;28;20628;-61
2023/06/05 10:42:34;;;;;;;2.58;1.02;;;;;;;33.45;13.89;100898.31;5054514;28;20651;-61
2023/06/05 10:45:05;;;;;;;3.15;1.10;;;;;;;33.71;12.94;100903.88;5053264;28;20211;-62
2023/06/05 10:47:52;;;;;;;2.97;0.98;;;;;;;33.65;13.28;100895.44;5053654;28;20539;-61
2023/06/05 10:50:26;;;;;;;2.40;1.15;;;;;;;34.23;13.05;100893.50;5053511;28;20289;-62
2023/06/05 10:52:57;;;;;;;3.10;1.60;;;;;;;34.69;12.34;100888.94;5053262;28;20220;-61
2023/06/05 10:55:27;;;;;;;2.67;1.00;;;;;;;34.89;11.92;100893.13;5053764;28;20202;-63
2023/06/05 10:58:23;;;;;;;1.33;1.00;;;;;;;34.64;11.63;100896.59;5053112;28;20236;-62
2023/06/05 11:01:20;;;;;;;2.35;1.15;;;;;;;33.04;13.05;100901.19;5039156;28;20217;-61
2023/06/05 11:04:00;;;;;;;2.45;1.20;;;;;;;32.66;13.42;100894.88;5043780;28;20202;-61
2023/06/05 11:06:28;;;;;;;1.33;1.10;;;;;;;33.01;13.50;100889.97;5053268;28;20278;-61
2023/06/05 11:09:13;;;;;;;2.45;0.95;;;;;;;33.32;12.88;100887.91;5052324;28;20240;-61
2023/06/05 11:12:01;;;;;;;3.78;0.93;;;;;;;34.03;12.34;100887.44;5049909;28;20242;-61
2023/06/05 11:14:46;;;;;;;1.02;0.98;;;;;;;34.41;12.31;100886.31;5051929;28;20335;-62
2023/06/05 11:17:29;;;;;;;1.95;0.98;;;;;;;34.50;12.35;100882.78;5052831;28;20205;-62
2023/06/05 11:19:57;;;;;;;2.10;1.13;;;;;;;34.65;12.09;100879.53;5052754;28;20202;-62
2023/06/05 11:22:27;;;;;;;1.23;1.10;;;;;;;34.97;12.09;100878.97;5040495;28;20251;-63
2023/06/05 11:25:26;;;;;;;3.13;1.10;;;;;;;35.02;12.11;100874.88;5053028;28;20236;-63
2023/06/05 11:27:56;;;;;;;0.85;0.85;;;;;;;34.95;12.18;100875.63;5039453;28;20217;-62
2023/06/05 11:30:28;;;;;;;3.70;0.90;;;;;;;34.91;12.10;100871.56;5052773;28;20212;-62
2023/06/05 11:33:19;;;;;;;2.22;1.10;;;;;;;34.83;12.49;100869.66;5051331;28;20212;-62
2023/06/05 11:35:49;;;;;;;1.73;1.17;;;;;;;34.71;12.34;100871.72;5052560;28;20293;-62
2023/06/05 11:38:18;;;;;;;1.33;0.95;;;;;;;34.50;12.61;100861.38;5052570;28;20259;-60